createdAt,value
2023-03-04T00:00:32.629Z,103379.09
2023-03-04T00:03:00.925Z,103383.34
2023-03-04T00:05:30.995Z,103379.03
2023-03-04T00:07:59.084Z,103380.72
2023-03-04T00:10:27.222Z,103372.84
2023-03-04T00:12:55.462Z,103378.94
2023-03-04T00:15:24.899Z,103377.06
2023-03-04T00:17:53.063Z,103374.63
2023-03-04T00:20:21.391Z,103367.53
2023-03-04T00:22:49.559Z,103366.69
2023-03-04T00:25:18.063Z,103365.75
2023-03-04T00:27:46.161Z,103363.06
2023-03-04T00:30:14.783Z,103365.59
2023-03-04T00:32:44.482Z,103365.69
2023-03-04T00:35:12.644Z,103373.56
2023-03-04T00:37:40.701Z,103370.16
2023-03-04T00:40:10.733Z,103364.91
2023-03-04T00:42:38.850Z,103371.00
2023-03-04T00:45:08.442Z,103364.91
2023-03-04T00:47:36.876Z,103364.16
2023-03-04T00:50:07.815Z,103358.91
2023-03-04T00:52:36.008Z,103358.13
2023-03-04T00:55:04.317Z,103352.88
2023-03-04T00:57:32.436Z,103351.97
2023-03-04T01:00:00.665Z,103345.78
2023-03-04T01:02:28.831Z,103352.72
2023-03-04T01:04:57.069Z,103356.28
2023-03-04T01:07:26.558Z,103353.47
2023-03-04T01:09:54.630Z,103351.72
2023-03-04T01:12:22.919Z,103355.25
2023-03-04T01:14:51.231Z,103356.09
2023-03-04T01:17:19.526Z,103357.88
2023-03-04T01:19:47.755Z,103357.97
2023-03-04T01:22:16.853Z,103358.81
2023-03-04T01:24:46.764Z,103364.16
2023-03-04T01:27:14.911Z,103360.50
2023-03-04T01:29:43.109Z,103365.94
2023-03-04T01:32:11.398Z,103364.22
2023-03-04T01:34:39.506Z,103369.53
2023-03-04T01:37:07.823Z,103374.03
2023-03-04T01:39:36.104Z,103368.00
2023-03-04T01:42:05.996Z,103370.47
2023-03-04T01:44:34.368Z,103363.56
2023-03-04T01:47:02.459Z,103371.31
2023-03-04T01:49:30.659Z,103363.56
2023-03-04T01:51:58.867Z,103368.78
2023-03-04T01:54:27.029Z,103363.56
2023-03-04T01:56:56.935Z,103358.38
2023-03-04T01:59:31.650Z,103354.91
2023-03-04T02:02:01.693Z,103359.31
2023-03-04T02:04:34.514Z,103362.00
2023-03-04T02:07:04.681Z,103357.75
2023-03-04T02:09:34.412Z,103350.00
2023-03-04T02:12:03.104Z,103345.69
2023-03-04T02:14:32.700Z,103354.63
2023-03-04T02:17:00.865Z,103353.84
2023-03-04T02:19:39.208Z,103352.09
2023-03-04T02:22:07.514Z,103352.16
2023-03-04T02:24:40.556Z,103347.75
2023-03-04T02:27:10.291Z,103345.31
2023-03-04T02:29:38.590Z,103341.84
2023-03-04T02:32:07.092Z,103348.59
2023-03-04T02:34:36.678Z,103332.88
2023-03-04T02:37:05.730Z,103332.88
2023-03-04T02:39:36.644Z,103331.97
2023-03-04T02:42:05.943Z,103332.88
2023-03-04T02:44:37.645Z,103335.50
2023-03-04T02:47:09.062Z,103338.06
2023-03-04T02:49:37.505Z,103339.84
2023-03-04T02:52:08.075Z,103336.28
2023-03-04T02:54:36.615Z,103336.03
2023-03-04T02:57:07.398Z,103338.06
2023-03-04T02:59:38.000Z,103340.69
2023-03-04T03:02:06.526Z,103338.91
2023-03-04T03:04:35.860Z,103340.75
2023-03-04T03:07:04.209Z,103340.59
2023-03-04T03:09:32.392Z,103344.25
2023-03-04T03:12:00.605Z,103341.66
2023-03-04T03:14:28.784Z,103333.06
2023-03-04T03:16:58.258Z,103338.44
2023-03-04T03:19:26.388Z,103333.34
2023-03-04T03:21:54.560Z,103337.59
2023-03-04T03:24:22.768Z,103332.38
2023-03-04T03:26:51.008Z,103333.22
2023-03-04T03:29:19.189Z,103326.28
2023-03-04T03:31:47.510Z,103321.88
2023-03-04T03:34:17.054Z,103325.50
2023-03-04T03:36:45.239Z,103326.44
2023-03-04T03:39:13.504Z,103329.97
2023-03-04T03:41:41.616Z,103326.75
2023-03-04T03:44:09.752Z,103324.38
2023-03-04T03:46:38.037Z,103324.53
2023-03-04T03:49:06.207Z,103314.22
2023-03-04T03:51:35.826Z,103316.91
2023-03-04T03:54:04.030Z,103315.13
2023-03-04T03:56:32.212Z,103313.38
2023-03-04T03:59:00.339Z,103316.66
2023-03-04T04:01:28.817Z,103316.59
2023-03-04T04:03:56.906Z,103317.44
2023-03-04T04:06:25.049Z,103314.81
2023-03-04T04:08:54.688Z,103318.28
2023-03-04T04:11:23.102Z,103313.97
2023-03-04T04:13:51.305Z,103317.44
2023-03-04T04:16:19.449Z,103312.34
2023-03-04T04:18:47.652Z,103308.88
2023-03-04T04:21:15.954Z,103309.66
2023-03-04T04:23:44.117Z,103313.91
2023-03-04T04:26:13.629Z,103321.84
2023-03-04T04:28:42.125Z,103314.13
2023-03-04T04:31:10.985Z,103315.91
2023-03-04T04:33:39.133Z,103316.91
2023-03-04T04:36:08.606Z,103309.97
2023-03-04T04:38:37.773Z,103316.22
2023-03-04T04:41:06.650Z,103323.25
2023-03-04T04:43:36.186Z,103319.84
2023-03-04T04:46:04.364Z,103316.38
2023-03-04T04:48:32.505Z,103323.31
2023-03-04T04:51:00.572Z,103320.78
2023-03-04T04:53:28.685Z,103323.53
2023-03-04T04:55:56.893Z,103318.31
2023-03-04T04:58:24.957Z,103318.31
2023-03-04T05:00:58.084Z,103314.84
2023-03-04T05:03:26.366Z,103319.16
2023-03-04T05:05:54.525Z,103320.00
2023-03-04T05:08:22.741Z,103321.72
2023-03-04T05:10:50.926Z,103325.31
2023-03-04T05:13:19.631Z,103324.47
2023-03-04T05:15:47.841Z,103317.38
2023-03-04T05:18:17.333Z,103322.63
2023-03-04T05:20:45.594Z,103320.94
2023-03-04T05:23:13.715Z,103321.84
2023-03-04T05:25:41.831Z,103327.09
2023-03-04T05:28:12.622Z,103328.09
2023-03-04T05:30:41.426Z,103333.41
2023-03-04T05:33:10.447Z,103324.72
2023-03-04T05:35:41.596Z,103331.88
2023-03-04T05:38:12.377Z,103329.34
2023-03-04T05:40:41.199Z,103337.28
2023-03-04T05:43:09.309Z,103331.16
2023-03-04T05:45:38.050Z,103335.75
2023-03-04T05:48:06.929Z,103334.91
2023-03-04T05:50:35.774Z,103334.06
2023-03-04T05:53:05.342Z,103333.19
2023-03-04T05:55:33.536Z,103331.44
2023-03-04T05:58:01.794Z,103340.19
2023-03-04T06:00:30.131Z,103333.28
2023-03-04T06:02:58.272Z,103334.09
2023-03-04T06:05:26.482Z,103339.44
2023-03-04T06:07:54.541Z,103333.34
2023-03-04T06:10:24.156Z,103340.38
2023-03-04T06:12:52.308Z,103333.41
2023-03-04T06:15:20.521Z,103341.25
2023-03-04T06:17:48.690Z,103344.81
2023-03-04T06:20:16.852Z,103343.13
2023-03-04T06:22:44.988Z,103339.56
2023-03-04T06:25:13.077Z,103344.66
2023-03-04T06:27:42.607Z,103348.97
2023-03-04T06:30:11.894Z,103346.50
2023-03-04T06:32:40.465Z,103347.53
2023-03-04T06:35:10.772Z,103348.50
2023-03-04T06:37:39.732Z,103350.28
2023-03-04T06:40:09.200Z,103344.19
2023-03-04T06:42:37.976Z,103347.75
2023-03-04T06:45:09.603Z,103346.06
2023-03-04T06:47:38.079Z,103348.69
2023-03-04T06:50:07.181Z,103346.97
2023-03-04T06:52:35.366Z,103347.88
2023-03-04T06:55:03.500Z,103356.75
2023-03-04T06:57:31.657Z,103350.69
2023-03-04T06:59:59.997Z,103349.84
2023-03-04T07:02:29.491Z,103346.34
2023-03-04T07:04:57.676Z,103355.22
2023-03-04T07:07:27.549Z,103355.97
2023-03-04T07:09:55.676Z,103355.13
2023-03-04T07:12:23.838Z,103349.88
2023-03-04T07:14:51.931Z,103348.97
2023-03-04T07:17:20.040Z,103347.97
2023-03-04T07:19:49.723Z,103346.13
2023-03-04T07:22:17.803Z,103345.34
2023-03-04T07:24:45.895Z,103348.97
2023-03-04T07:27:14.018Z,103345.59
2023-03-04T07:29:42.143Z,103350.69
2023-03-04T07:32:11.509Z,103348.06
2023-03-04T07:34:39.839Z,103355.00
2023-03-04T07:37:09.462Z,103356.69
2023-03-04T07:39:37.706Z,103355.75
2023-03-04T07:42:05.897Z,103362.84
2023-03-04T07:44:34.005Z,103361.22
2023-03-04T07:47:02.265Z,103356.81
2023-03-04T07:49:30.473Z,103361.16
2023-03-04T07:51:58.708Z,103359.44
2023-03-04T07:54:28.313Z,103364.66
2023-03-04T07:56:56.417Z,103366.44
2023-03-04T07:59:24.844Z,103364.66
2023-03-04T08:01:53.088Z,103377.53
2023-03-04T08:04:21.456Z,103368.78
2023-03-04T08:06:49.848Z,103370.47
2023-03-04T08:09:18.052Z,103372.25
2023-03-04T08:11:47.655Z,103371.31
2023-03-04T08:14:16.229Z,103374.91
2023-03-04T08:16:44.476Z,103382.09
2023-03-04T08:19:13.405Z,103389.03
2023-03-04T08:21:41.688Z,103386.09
2023-03-04T08:24:09.901Z,103382.56
2023-03-04T08:26:42.856Z,103391.56
2023-03-04T08:29:15.032Z,103392.50
2023-03-04T08:31:46.817Z,103384.72
2023-03-04T08:34:16.566Z,103389.97
2023-03-04T08:36:44.786Z,103391.72
2023-03-04T08:39:15.256Z,103388.94
2023-03-04T08:41:43.917Z,103382.78
2023-03-04T08:44:13.548Z,103380.09
2023-03-04T08:46:43.768Z,103380.09
2023-03-04T08:49:14.605Z,103372.25
2023-03-04T08:51:43.171Z,103383.63
2023-03-04T08:54:11.420Z,103377.47
2023-03-04T08:56:39.612Z,103371.41
2023-03-04T08:59:07.740Z,103370.53
2023-03-04T09:01:37.515Z,103373.16
2023-03-04T09:04:05.993Z,103368.94
2023-03-04T09:06:34.077Z,103377.53
2023-03-04T09:09:02.551Z,103378.25
2023-03-04T09:11:30.857Z,103370.16
2023-03-04T09:13:59.072Z,103376.84
2023-03-04T09:16:27.327Z,103370.72
2023-03-04T09:18:56.896Z,103372.47
2023-03-04T09:21:24.967Z,103369.94
2023-03-04T09:23:53.116Z,103366.63
2023-03-04T09:26:23.942Z,103372.69
2023-03-04T09:28:53.240Z,103372.41
2023-03-04T09:31:22.217Z,103370.56
2023-03-04T09:33:50.891Z,103375.88
2023-03-04T09:36:20.589Z,103375.78
2023-03-04T09:38:48.813Z,103382.56
2023-03-04T09:41:21.144Z,103382.72
2023-03-04T09:43:50.520Z,103392.22
2023-03-04T09:46:24.026Z,103389.50
2023-03-04T09:48:56.119Z,103385.81
2023-03-04T09:51:43.209Z,103389.97
2023-03-04T09:54:17.048Z,103390.72
2023-03-04T09:56:45.278Z,103381.88
2023-03-04T09:59:25.384Z,103392.22
2023-03-04T10:01:56.216Z,103393.13
2023-03-04T10:04:34.588Z,103394.97
2023-03-04T10:07:06.304Z,103386.91
2023-03-04T10:09:46.268Z,103387.66
2023-03-04T10:12:18.629Z,103390.13
2023-03-04T10:14:53.628Z,103384.56
2023-03-04T10:17:25.792Z,103391.56
2023-03-04T10:19:59.051Z,103390.41
2023-03-04T10:22:36.182Z,103384.19
2023-03-04T10:25:17.683Z,103379.69
2023-03-04T10:27:51.608Z,103383.84
2023-03-04T10:30:28.022Z,103381.31
2023-03-04T10:32:56.116Z,103381.22
2023-03-04T10:35:33.654Z,103381.94
2023-03-04T10:38:05.618Z,103387.16
2023-03-04T10:40:40.673Z,103381.78
2023-03-04T10:43:16.515Z,103374.66
2023-03-04T10:45:45.751Z,103369.44
2023-03-04T10:48:25.043Z,103375.38
2023-03-04T10:50:53.655Z,103365.72
2023-03-04T10:53:34.461Z,103369.28
2023-03-04T10:56:03.396Z,103365.72
2023-03-04T10:58:31.661Z,103365.13
2023-03-04T11:01:05.332Z,103350.31
2023-03-04T11:03:36.901Z,103353.84
2023-03-04T11:06:13.840Z,103351.16
2023-03-04T11:08:43.698Z,103350.13
2023-03-04T11:11:26.418Z,103350.31
2023-03-04T11:13:58.535Z,103353.59
2023-03-04T11:16:28.956Z,103359.63
2023-03-04T11:19:00.466Z,103353.53
2023-03-04T11:21:30.199Z,103348.31
2023-03-04T11:24:02.776Z,103339.66
2023-03-04T11:26:36.149Z,103338.06
2023-03-04T11:29:13.223Z,103349.16
2023-03-04T11:31:47.646Z,103348.13
2023-03-04T11:34:21.341Z,103337.56
2023-03-04T11:36:57.364Z,103338.66
2023-03-04T11:39:35.680Z,103342.13
2023-03-04T11:42:12.453Z,103334.25
2023-03-04T11:44:41.587Z,103334.34
2023-03-04T11:47:30.335Z,103333.41
2023-03-04T11:50:24.747Z,103336.25
2023-03-04T11:53:10.359Z,103334.63
2023-03-04T11:55:46.994Z,103335.56
2023-03-04T11:58:50.723Z,103328.53
2023-03-04T12:01:27.662Z,103318.63
2023-03-04T12:04:14.903Z,103324.03
2023-03-04T12:06:53.435Z,103314.31
2023-03-04T12:09:41.216Z,103314.91
2023-03-04T12:12:32.305Z,103315.66
2023-03-04T12:15:10.686Z,103316.34
2023-03-04T12:17:56.208Z,103314.66
2023-03-04T12:20:36.980Z,103320.91
2023-03-04T12:23:19.362Z,103322.94
2023-03-04T12:25:53.999Z,103321.00
2023-03-04T12:28:40.210Z,103319.31
2023-03-04T12:31:34.108Z,103313.28
2023-03-04T12:34:30.561Z,103313.28
2023-03-04T12:37:15.831Z,103309.69
2023-03-04T12:39:55.952Z,103305.03
2023-03-04T12:42:38.190Z,103309.25
2023-03-04T12:45:19.105Z,103299.63
2023-03-04T12:47:56.243Z,103296.06
2023-03-04T12:50:37.837Z,103289.72
2023-03-04T12:53:11.593Z,103294.13
2023-03-04T12:55:43.360Z,103294.63
2023-03-04T12:58:18.340Z,103291.00
2023-03-04T13:00:56.621Z,103285.56
2023-03-04T13:03:34.047Z,103274.91
2023-03-04T13:06:22.163Z,103274.66
2023-03-04T13:09:01.510Z,103274.66
2023-03-04T13:11:55.924Z,103271.09
2023-03-04T13:14:30.168Z,103265.56
2023-03-04T13:17:01.948Z,103260.31
2023-03-04T13:19:53.088Z,103254.41
2023-03-04T13:22:58.105Z,103254.34
2023-03-04T13:25:33.485Z,103257.59
2023-03-04T13:28:17.907Z,103248.81
2023-03-04T13:31:34.084Z,103237.28
2023-03-04T13:34:05.878Z,103248.38
2023-03-04T13:36:57.239Z,103237.78
2023-03-04T13:39:32.392Z,103236.28
2023-03-04T13:42:01.829Z,103222.38
2023-03-04T13:44:35.649Z,103222.50
2023-03-04T13:47:15.161Z,103225.78
2023-03-04T13:49:44.714Z,103217.97
2023-03-04T13:52:40.490Z,103210.09
2023-03-04T13:55:37.643Z,103214.09
2023-03-04T13:58:19.580Z,103210.53
2023-03-04T14:00:53.637Z,103213.88
2023-03-04T14:03:25.077Z,103208.00
2023-03-04T14:06:18.555Z,103204.97
2023-03-04T14:08:47.976Z,103203.06
2023-03-04T14:11:18.552Z,103198.88
2023-03-04T14:13:46.897Z,103194.38
2023-03-04T14:16:22.149Z,103199.88
2023-03-04T14:19:02.510Z,103200.06
2023-03-04T14:21:32.851Z,103200.13
2023-03-04T14:24:06.888Z,103190.75
2023-03-04T14:26:35.911Z,103192.63
2023-03-04T14:29:04.478Z,103189.06
2023-03-04T14:31:37.257Z,103190.75
2023-03-04T14:34:05.756Z,103181.13
2023-03-04T14:36:38.091Z,103184.66
2023-03-04T14:39:08.583Z,103179.09
2023-03-04T14:41:39.893Z,103175.00
2023-03-04T14:44:15.536Z,103173.63
2023-03-04T14:47:04.538Z,103174.31
2023-03-04T14:49:36.911Z,103171.94
2023-03-04T14:52:07.237Z,103165.38
2023-03-04T14:54:37.774Z,103163.03
2023-03-04T14:57:26.253Z,103162.44
2023-03-04T14:59:54.906Z,103155.41
2023-03-04T15:02:31.458Z,103153.72
2023-03-04T15:05:16.928Z,103146.88
2023-03-04T15:07:52.973Z,103152.47
2023-03-04T15:10:25.286Z,103147.88
2023-03-04T15:12:55.170Z,103152.38
2023-03-04T15:15:36.520Z,103157.88
2023-03-04T15:18:15.640Z,103150.03
2023-03-04T15:20:43.795Z,103146.56
2023-03-04T15:23:14.903Z,103150.28
2023-03-04T15:25:43.199Z,103150.28
2023-03-04T15:28:18.791Z,103144.28
2023-03-04T15:30:47.031Z,103144.28
2023-03-04T15:33:15.288Z,103141.75
2023-03-04T15:35:50.515Z,103138.19
2023-03-04T15:38:20.500Z,103140.06
2023-03-04T15:40:49.406Z,103139.38
2023-03-04T15:43:20.127Z,103138.53
2023-03-04T15:45:49.773Z,103140.66
2023-03-04T15:48:19.295Z,103138.97
2023-03-04T15:50:50.741Z,103127.81
2023-03-04T15:53:27.220Z,103126.41
2023-03-04T15:55:55.653Z,103124.69
2023-03-04T15:58:23.906Z,103111.56
2023-03-04T16:00:52.058Z,103114.88
2023-03-04T16:03:21.729Z,103112.09
2023-03-04T16:05:52.007Z,103116.31
2023-03-04T16:08:25.161Z,103105.06
2023-03-04T16:10:59.017Z,103115.47
2023-03-04T16:13:27.157Z,103107.59
2023-03-04T16:15:56.020Z,103110.31
2023-03-04T16:18:25.082Z,103112.84
2023-03-04T16:20:53.360Z,103107.69
2023-03-04T16:23:25.603Z,103112.94
2023-03-04T16:25:56.928Z,103109.38
2023-03-04T16:28:25.005Z,103102.50
2023-03-04T16:30:53.378Z,103094.66
2023-03-04T16:33:21.551Z,103104.22
2023-03-04T16:35:51.789Z,103101.78
2023-03-04T16:38:28.178Z,103107.09
2023-03-04T16:40:57.455Z,103100.94
2023-03-04T16:43:26.470Z,103103.66
2023-03-04T16:45:54.757Z,103099.50
2023-03-04T16:48:23.046Z,103108.22
2023-03-04T16:50:51.404Z,103111.69
2023-03-04T16:53:30.089Z,103100.34
2023-03-04T16:55:59.718Z,103109.16
2023-03-04T16:58:27.878Z,103110.16
2023-03-04T17:00:56.417Z,103108.63
2023-03-04T17:03:24.572Z,103097.31
2023-03-04T17:05:52.708Z,103098.16
2023-03-04T17:08:21.174Z,103101.72
2023-03-04T17:10:50.893Z,103100.03
2023-03-04T17:13:18.933Z,103102.06
2023-03-04T17:15:47.258Z,103099.50
2023-03-04T17:18:15.388Z,103099.59
2023-03-04T17:20:44.215Z,103106.78
2023-03-04T17:23:12.520Z,103108.56
2023-03-04T17:25:40.634Z,103106.03
2023-03-04T17:28:10.216Z,103105.25
2023-03-04T17:30:38.406Z,103107.28
2023-03-04T17:33:06.567Z,103110.09
2023-03-04T17:35:34.797Z,103108.31
2023-03-04T17:38:03.021Z,103107.47
2023-03-04T17:40:31.283Z,103093.69
2023-03-04T17:42:59.531Z,103100.03
2023-03-04T17:45:29.245Z,103096.56
2023-03-04T17:47:57.424Z,103094.69
2023-03-04T17:50:25.563Z,103093.84
2023-03-04T17:52:53.832Z,103097.50
2023-03-04T17:55:22.048Z,103093.19
2023-03-04T17:57:52.978Z,103103.66
2023-03-04T18:00:22.083Z,103096.81
2023-03-04T18:02:51.660Z,103095.03
2023-03-04T18:05:19.957Z,103098.50
2023-03-04T18:07:48.768Z,103088.22
2023-03-04T18:10:17.337Z,103091.81
2023-03-04T18:12:47.478Z,103090.97
2023-03-04T18:15:15.585Z,103086.69
2023-03-04T18:17:45.513Z,103089.34
2023-03-04T18:20:15.398Z,103089.34
2023-03-04T18:22:44.269Z,103088.38
2023-03-04T18:25:13.524Z,103087.53
2023-03-04T18:27:42.137Z,103085.66
2023-03-04T18:30:12.308Z,103084.72
2023-03-04T18:32:51.383Z,103087.34
2023-03-04T18:35:22.004Z,103087.34
2023-03-04T18:37:50.940Z,103082.28
2023-03-04T18:40:19.535Z,103086.00
2023-03-04T18:42:48.305Z,103081.75
2023-03-04T18:45:18.222Z,103081.75
2023-03-04T18:47:50.138Z,103080.00
2023-03-04T18:50:20.696Z,103078.13
2023-03-04T18:52:49.193Z,103074.50
2023-03-04T18:55:18.657Z,103074.50
2023-03-04T18:57:50.605Z,103067.50
2023-03-04T19:00:21.146Z,103059.72
2023-03-04T19:02:54.570Z,103061.34
2023-03-04T19:05:27.678Z,103070.97
2023-03-04T19:07:56.151Z,103076.00
2023-03-04T19:10:25.639Z,103073.34
2023-03-04T19:12:53.989Z,103068.84
2023-03-04T19:15:22.139Z,103053.22
2023-03-04T19:17:50.459Z,103059.28
2023-03-04T19:20:19.121Z,103058.53
2023-03-04T19:22:48.777Z,103054.16
2023-03-04T19:25:16.941Z,103042.75
2023-03-04T19:27:45.140Z,103038.34
2023-03-04T19:30:14.458Z,103027.88
2023-03-04T19:32:43.522Z,103038.34
2023-03-04T19:35:11.925Z,103031.41
2023-03-04T19:37:40.109Z,103031.41
2023-03-04T19:40:14.022Z,103026.19
2023-03-04T19:42:42.185Z,103032.31
2023-03-04T19:45:10.886Z,103020.09
2023-03-04T19:47:39.554Z,103016.63
2023-03-04T19:50:11.137Z,103025.16
2023-03-04T19:52:39.663Z,103016.44
2023-03-04T19:55:14.168Z,103013.72
2023-03-04T19:57:43.549Z,103009.38
2023-03-04T20:00:13.318Z,103009.44
2023-03-04T20:02:43.193Z,103014.59
2023-03-04T20:05:12.516Z,103006.91
2023-03-04T20:07:41.022Z,103005.22
2023-03-04T20:10:12.463Z,103002.78
2023-03-04T20:12:40.360Z,103007.16
2023-03-04T20:15:09.844Z,103007.84
2023-03-04T20:17:38.025Z,103007.06
2023-03-04T20:20:10.738Z,103002.66
2023-03-04T20:22:39.198Z,103000.91
2023-03-04T20:25:08.251Z,103007.00
2023-03-04T20:27:37.847Z,103007.06
2023-03-04T20:30:07.027Z,103006.22
2023-03-04T20:32:35.453Z,103001.09
2023-03-04T20:35:03.688Z,103000.31
2023-03-04T20:37:32.226Z,102999.56
2023-03-04T20:40:00.451Z,102997.78
2023-03-04T20:42:28.609Z,103006.59
2023-03-04T20:44:58.126Z,102996.84
2023-03-04T20:47:26.468Z,102987.22
2023-03-04T20:49:54.887Z,102986.31
2023-03-04T20:52:23.209Z,102982.06
2023-03-04T20:54:51.597Z,102983.75
2023-03-04T20:57:20.523Z,102978.63
2023-03-04T20:59:49.030Z,102969.06
2023-03-04T21:02:19.867Z,102972.53
2023-03-04T21:04:48.048Z,102964.69
2023-03-04T21:07:38.694Z,102970.06
2023-03-04T21:10:07.812Z,102969.13
2023-03-04T21:12:36.169Z,102965.78
2023-03-04T21:15:04.742Z,102959.78
2023-03-04T21:17:34.459Z,102961.53
2023-03-04T21:20:02.604Z,102967.03
2023-03-04T21:22:30.867Z,102956.66
2023-03-04T21:24:59.172Z,102950.56
2023-03-04T21:27:27.445Z,102954.88
2023-03-04T21:29:55.580Z,102953.09
2023-03-04T21:32:26.621Z,102952.34
2023-03-04T21:34:57.122Z,102951.50
2023-03-04T21:37:26.633Z,102945.34
2023-03-04T21:39:55.627Z,102944.50
2023-03-04T21:42:23.891Z,102946.19
2023-03-04T21:44:52.948Z,102944.59
2023-03-04T21:47:21.849Z,102944.50
2023-03-04T21:49:50.612Z,102941.09
2023-03-04T21:52:22.230Z,102936.81
2023-03-04T21:54:50.938Z,102935.03
2023-03-04T21:57:19.902Z,102946.53
2023-03-04T21:59:48.067Z,102939.03
2023-03-04T22:02:18.187Z,102935.38
2023-03-04T22:04:47.054Z,102935.47
2023-03-04T22:07:15.732Z,102923.22
2023-03-04T22:09:45.360Z,102923.97
2023-03-04T22:12:14.712Z,102929.16
2023-03-04T22:14:43.249Z,102924.16
2023-03-04T22:17:11.501Z,102932.03
2023-03-04T22:19:39.793Z,102928.56
2023-03-04T22:22:08.005Z,102927.69
2023-03-04T22:24:36.150Z,102926.09
2023-03-04T22:27:05.815Z,102926.00
2023-03-04T22:29:33.961Z,102924.41
2023-03-04T22:32:02.447Z,102927.88
2023-03-04T22:34:30.716Z,102933.44
2023-03-04T22:36:58.854Z,102928.38
2023-03-04T22:39:26.977Z,102927.44
2023-03-04T22:41:55.118Z,102926.69
2023-03-04T22:44:24.653Z,102918.94
2023-03-04T22:46:53.358Z,102919.44
2023-03-04T22:49:21.562Z,102919.34
2023-03-04T22:51:49.689Z,102920.44
2023-03-04T22:54:19.852Z,102913.53
2023-03-04T22:56:48.002Z,102909.03
2023-03-04T22:59:16.127Z,102913.53
2023-03-04T23:01:45.706Z,102905.56
2023-03-04T23:04:13.890Z,102904.56
2023-03-04T23:06:42.151Z,102902.91
2023-03-04T23:09:10.389Z,102893.25
2023-03-04T23:11:39.646Z,102886.50
2023-03-04T23:14:09.080Z,102880.25
2023-03-04T23:16:42.574Z,102878.56
2023-03-04T23:19:14.380Z,102878.56
2023-03-04T23:21:43.639Z,102869.97
2023-03-04T23:24:12.739Z,102873.50
2023-03-04T23:26:42.438Z,102877.03
2023-03-04T23:29:14.833Z,102870.28
2023-03-04T23:31:44.387Z,102861.59
2023-03-04T23:34:14.774Z,102863.56
2023-03-04T23:36:42.927Z,102858.06
2023-03-04T23:39:13.261Z,102864.22
2023-03-04T23:41:41.505Z,102855.47
2023-03-04T23:44:09.725Z,102855.38
2023-03-04T23:46:39.284Z,102846.00
2023-03-04T23:49:08.162Z,102843.53
2023-03-04T23:51:37.743Z,102841.13
2023-03-04T23:54:06.024Z,102840.19
2023-03-04T23:56:34.922Z,102836.53
2023-03-04T23:59:04.173Z,102840.06
